Latest Weather Observations for Barimunya

IDW60801

Issued at 11:03 am WST Saturday 22 February 2020 (issued every 10 minutes, with the page automatically refreshed every 10 minutes)

About weather observations | Map of weather stations | Latest weather observations for WA | Other Formats
Station Details ID: 505053 Name: BARIMUNYA Lat: -22.67 Lon: 119.16 Height: 629.17 m
Data from the previous 72 hours. | See also: Recent months for locations in Western Australia
Date/Time
WST
Temp
°C
App
Temp
°C
Dew
Point
°C
Rel
Hum
%
Delta-T
°C
Wind Press
QNH
hPa
Press
MSL
hPa
Rain since
9am
mm
Dir  Spd
km/h
Gust
km/h
Spd
kts
Gust
kts
22/11:00am 31.1 30.9 19.4 49 7.8 N 19 28 10 15 1015.1 1009.7 0.0
22/10:30am 29.4 29.9 20.0 57 6.3 N 17 24 9 13 1015.3 1009.9 0.0
22/10:00am 29.0 30.1 20.4 59 5.8 N 15 26 8 14 1015.3 1009.9 0.0
22/09:30am 28.8 29.9 20.5 61 5.6 N 15 20 8 11 1015.7 1010.3 0.0
22/09:00am 28.1 30.0 20.6 63 5.1 N 11 19 6 10 1015.7 1010.3 0.6
22/08:30am 27.2 29.2 20.8 68 4.3 NNE 11 20 6 11 1015.3 1009.9 0.6
22/08:00am 26.6 29.3 20.7 70 4.0 NNW 7 11 4 6 1015.0 1009.6 0.6
22/07:30am 25.8 28.6 21.5 77 2.9 WNW 9 15 5 8 1014.9 1009.5 0.6
22/07:00am 24.9 28.4 21.8 83 2.1 NNW 6 9 3 5 1014.8 1009.4 0.6
22/06:30am 24.4 27.9 22.1 87 1.6 NNW 7 9 4 5 1014.4 1009.0 0.6
22/06:18am 24.1 27.4 21.8 87 1.6 NNW 7 11 4 6 1014.4 1009.0 0.6
22/06:17am 24.1 27.4 21.8 87 1.6 NNW 7 11 4 6 1014.4 - 0.6
22/06:00am 24.1 27.0 21.8 87 1.6 NW 9 13 5 7 1014.3 1008.9 0.6
22/05:30am 24.1 27.8 22.5 91 1.1 NNW 7 11 4 6 1014.2 1008.8 0.6
22/05:00am 24.3 27.7 22.7 91 1.1 N 9 13 5 7 1014.1 1008.7 0.6
22/04:30am 24.5 26.9 22.9 91 1.1 N 15 20 8 11 1013.7 1008.3 0.6
22/04:10am 24.5 26.8 22.7 90 1.2 N 15 20 8 11 1013.5 - 0.6
22/04:09am 24.6 26.9 22.8 90 1.2 N 15 20 8 11 1013.5 - 0.6
22/04:00am 24.6 27.3 22.8 90 1.2 NNW 13 17 7 9 1013.5 1008.1 0.6
22/03:55am 24.6 27.7 22.8 90 1.2 NNW 11 15 6 8 1013.5 1008.1 0.6
22/03:54am 24.7 27.8 22.9 90 1.2 N 11 15 6 8 1013.5 - 0.6
22/03:30am 24.7 27.4 22.8 89 1.3 N 13 22 7 12 1013.4 1008.0 0.6
22/03:21am 24.8 27.5 22.9 89 1.3 N 13 20 7 11 1013.4 1008.0 0.6
22/03:20am 24.8 27.2 22.9 89 1.3 N 15 20 8 11 1013.4 - 0.6
22/03:00am 25.0 27.9 23.1 89 1.3 NNW 13 22 7 12 1013.5 1008.1 0.6
22/02:30am 25.3 28.9 23.0 87 1.6 NNW 9 11 5 6 1013.8 1008.4 0.6
22/02:14am 25.4 28.3 23.1 87 1.6 NW 13 17 7 9 1014.0 1008.5 0.6
22/02:13am 25.4 28.3 23.1 87 1.6 NW 13 20 7 11 1014.0 1008.5 0.6
22/02:12am 25.4 28.3 23.1 87 1.6 NW 13 20 7 11 1013.9 - 0.6
22/02:00am 25.4 28.3 23.1 87 1.6 NNW 13 24 7 13 1014.1 1008.7 0.6
22/01:30am 25.7 28.1 23.0 85 1.9 N 15 20 8 11 1014.1 1008.7 0.6
22/01:20am 25.9 27.9 23.0 84 2.0 N 17 20 9 11 1014.1 1008.7 0.6
22/01:19am 25.8 27.8 22.9 84 2.0 N 17 20 9 11 1014.1 - 0.6
22/01:00am 26.1 28.5 23.0 83 2.2 N 15 24 8 13 1014.2 1008.8 0.6
22/12:30am 26.4 28.7 22.7 80 2.6 NNW 15 19 8 10 1014.4 1009.0 0.6
22/12:00am 26.6 29.1 22.4 78 2.9 NNW 13 19 7 10 1014.5 1009.1 0.6
 
Date/Time
WST
Temp
°C
App
Temp
°C
Dew
Point
°C
Rel
Hum
%
Delta-T
°C
Wind Press
QNH
hPa
Press
MSL
hPa
Rain since
9am
mm
Dir  Spd
km/h
Gust
km/h
Spd
kts
Gust
kts
21/11:30pm 26.7 29.2 21.7 74 3.4 NNW 11 17 6 9 1014.6 1009.2 0.6
21/11:00pm 26.6 28.9 21.4 73 3.5 N 11 15 6 8 1014.7 1009.3 0.6
21/10:30pm 26.8 28.5 20.9 70 4.0 NNE 13 17 7 9 1014.7 1009.3 0.6
21/10:00pm 25.5 29.4 21.8 80 2.5 SE 4 11 2 6 1014.5 1009.1 0.6
21/09:30pm 24.9 26.4 21.2 80 2.5 E 15 19 8 10 1014.6 1009.2 0.6
21/09:00pm 27.9 26.2 19.7 61 5.5 ENE 28 46 15 25 1014.6 1009.2 0.0
21/08:47pm 29.5 27.1 18.3 51 7.4 NE 28 41 15 22 1014.3 - 0.0
21/08:46pm 29.6 29.4 18.4 51 7.4 NE 17 41 9 22 1014.3 1008.9 0.0
21/08:30pm 29.6 32.4 19.6 55 6.7 NNE 4 6 2 3 1013.6 1008.2 0.0
21/08:00pm 29.9 30.8 19.3 53 7.1 N 13 19 7 10 1013.4 1008.0 0.0
21/07:30pm 31.1 33.5 18.8 48 8.2 NNE 4 9 2 5 1012.7 1007.3 0.0
21/07:00pm 31.3 32.9 18.3 46 8.6 NNE 7 11 4 6 1012.3 1006.8 0.0
21/06:30pm 31.8 32.4 17.7 43 9.2 NNE 11 15 6 8 1011.8 1006.4 0.0
21/06:00pm 32.4 32.0 17.1 40 10.0 NNE 15 20 8 11 1011.5 1006.1 0.0
21/05:30pm 33.3 32.3 17.5 39 10.4 NNE 19 26 10 14 1011.3 1005.9 0.0
21/05:00pm 33.5 33.1 17.2 37 10.7 NNE 15 22 8 12 1011.0 1005.5 0.0
21/04:30pm 33.1 32.2 16.9 38 10.5 NNE 17 22 9 12 1010.9 1005.4 0.0
21/04:00pm 33.7 32.5 17.0 37 10.9 N 19 26 10 14 1011.1 1005.6 0.0
21/03:30pm 32.9 32.7 17.5 39 10.1 NNE 15 24 8 13 1011.3 1005.9 0.0
21/03:00pm 33.2 32.5 17.4 39 10.4 NNE 17 26 9 14 1011.5 1006.1 0.0
21/02:30pm 33.3 31.9 17.1 38 10.6 NNE 20 28 11 15 1011.8 1006.4 0.0
21/02:00pm 32.2 31.3 16.9 40 9.9 NNE 17 28 9 15 1012.1 1006.7 0.0
21/01:30pm 32.8 31.0 17.0 38 10.3 ENE 22 35 12 19 1012.4 1006.9 0.0
21/01:00pm 32.2 30.9 16.9 40 9.9 NE 19 32 10 17 1012.7 1007.3 0.0
21/12:30pm 31.4 29.5 16.6 41 9.5 NE 22 35 12 19 1013.0 1007.6 0.0
21/12:00pm 31.6 29.9 17.1 41 9.4 NE 22 32 12 17 1013.4 1008.0 0.0
21/11:30am 31.1 28.7 16.3 41 9.5 ENE 24 35 13 19 1013.6 1008.2 0.0
21/11:00am 30.9 28.1 15.3 38 9.9 ENE 24 33 13 18 1013.8 1008.4 0.0
21/10:30am 30.5 27.3 14.2 37 10.1 E 24 33 13 18 1014.2 1008.8 0.0
21/10:00am 30.0 26.5 13.3 36 10.2 ESE 24 32 13 17 1014.3 1008.9 0.0
21/09:30am 29.0 25.4 13.2 37 9.6 ESE 24 32 13 17 1014.6 1009.2 0.0
21/09:00am 27.5 26.3 16.1 49 7.2 SE 17 20 9 11 1014.9 1009.5 3.4
21/08:30am 25.6 25.0 16.7 58 5.6 ESE 15 20 8 11 1014.8 1009.4 3.4
21/08:00am 24.4 24.3 16.9 63 4.7 ESE 13 20 7 11 1014.6 1009.2 3.4
21/07:30am 23.4 24.0 17.6 70 3.7 ESE 11 15 6 8 1014.6 1009.2 3.4
21/07:00am 22.6 22.2 18.8 79 2.5 ESE 19 24 10 13 1014.3 1008.9 3.2
21/06:30am 22.0 21.8 19.7 87 1.5 ESE 20 26 11 14 1013.8 1008.4 3.2
21/06:00am 21.9 21.2 19.6 87 1.5 SE 22 30 12 16 1013.5 1008.1 3.2
21/05:30am 22.1 22.0 19.5 85 1.7 ESE 19 24 10 13 1014.0 1008.5 3.2
21/05:00am 22.1 22.6 20.0 88 1.4 ESE 17 22 9 12 1013.7 1008.3 3.2
21/04:30am 21.7 22.6 19.3 86 1.6 SE 13 17 7 9 1014.3 1008.9 3.2
21/04:13am 21.7 22.9 19.1 85 1.7 ESE 11 15 6 8 1014.5 1009.1 3.2
21/04:12am 21.7 22.8 18.9 84 1.8 ESE 11 15 6 8 1014.5 - 3.2
21/04:00am 21.6 22.8 19.0 85 1.7 SE 11 15 6 8 1014.3 1008.9 3.2
21/03:59am 21.5 22.6 18.9 85 1.7 ESE 11 15 6 8 1014.3 - 3.2
21/03:30am 21.2 21.3 18.4 84 1.8 ESE 15 20 8 11 1014.4 1009.0 3.2
21/03:00am 21.7 22.6 19.3 86 1.6 SSW 13 17 7 9 1014.5 1009.1 2.6
21/02:30am 22.8 25.5 19.4 81 2.2 SSE 4 7 2 4 1015.1 1009.7 1.4
21/02:00am 22.8 25.0 20.5 87 1.5 W 9 11 5 6 1015.2 1009.8 0.8
21/01:30am 22.9 23.5 20.2 85 1.8 W 17 20 9 11 1015.3 1009.9 0.6
21/01:00am 23.7 25.2 19.8 79 2.6 SW 11 13 6 7 1014.8 1009.4 0.2
21/12:30am 24.1 24.0 19.6 76 3.0 W 19 28 10 15 1014.8 1009.4 0.0
21/12:00am 26.7 26.5 15.7 51 6.9 SW 11 15 6 8 1014.5 1009.1 0.0
 
Date/Time
WST
Temp
°C
App
Temp
°C
Dew
Point
°C
Rel
Hum
%
Delta-T
°C
Wind Press
QNH
hPa
Press
MSL
hPa
Rain since
9am
mm
Dir  Spd
km/h
Gust
km/h
Spd
kts
Gust
kts
20/11:30pm 27.8 27.0 15.1 46 7.9 SSW 13 19 7 10 1014.4 1009.0 0.0
20/11:00pm 29.4 28.5 13.6 38 9.7 S 11 13 6 7 1014.7 1009.3 0.0
20/10:30pm 30.0 29.6 12.4 34 10.6 E 6 11 3 6 1014.5 1009.1 0.0
20/10:00pm 30.1 29.5 13.4 36 10.2 NNE 9 11 5 6 1014.2 1008.8 0.0
20/09:30pm 30.3 28.0 13.1 34 10.5 SSE 17 20 9 11 1013.5 1008.1 0.0
20/09:00pm 30.9 28.5 12.8 33 11.0 S 17 22 9 12 1013.1 1007.7 0.0
20/08:30pm 31.3 29.3 12.6 31 11.4 SSE 15 19 8 10 1012.5 1007.0 0.0
20/08:00pm 31.6 29.5 12.4 31 11.7 S 15 22 8 12 1011.2 1005.8 0.0
20/07:30pm 32.4 30.4 12.6 30 12.1 SSE 15 17 8 9 1010.9 1005.4 0.0
20/07:00pm 32.9 31.1 12.0 28 12.7 SE 13 19 7 10 1010.0 1004.6 0.0
20/06:30pm 33.3 31.0 11.8 27 13.0 SE 15 20 8 11 1009.9 1004.5 0.0
20/06:00pm 34.0 31.2 11.2 25 13.7 SE 17 20 9 11 1009.9 1004.5 0.0
20/05:30pm 34.9 31.7 12.0 25 14.0 SE 20 26 11 14 1009.4 1003.9 0.0
20/05:00pm 35.3 32.0 11.7 24 14.4 SE 20 26 11 14 1009.1 1003.6 0.0
20/04:30pm 35.5 32.8 11.8 24 14.5 SE 17 24 9 13 1009.1 1003.6 0.0
20/04:00pm 35.2 32.1 12.2 25 14.1 SE 20 26 11 14 1009.1 1003.6 0.0
20/03:30pm 35.4 32.4 12.4 25 14.2 ESE 20 33 11 18 1009.5 1004.0 0.0
20/03:00pm 35.6 33.2 12.5 24 14.3 SE 17 24 9 13 1010.0 1004.6 0.0
20/02:30pm 34.7 33.4 12.4 26 13.7 SE 11 20 6 11 1010.3 1004.9 0.0
20/02:00pm 34.4 32.2 12.1 26 13.6 SE 15 20 8 11 1010.8 1005.3 0.0
20/01:30pm 33.8 31.6 13.3 29 12.7 ESE 17 24 9 13 1011.0 1005.5 0.0
20/01:00pm 33.8 31.6 13.3 29 12.7 SSE 17 24 9 13 1011.3 1005.9 0.0
20/12:30pm 33.7 31.3 12.7 28 12.9 SE 17 28 9 15 1011.6 1006.2 0.0
20/12:00pm 34.1 32.0 12.4 26 13.3 SSE 15 24 8 13 1012.0 1006.6 0.0
20/11:30am 32.6 30.1 12.3 29 12.3 SE 17 24 9 13 1012.4 1006.9 0.0
20/11:00am 31.7 28.5 12.0 30 11.9 SE 20 30 11 16 1012.7 1007.3 0.0
20/10:30am 30.9 27.6 12.8 33 11.0 SE 22 32 12 17 1013.1 1007.7 0.0
20/10:00am 28.6 27.2 16.5 48 7.7 SSE 19 22 10 12 1013.3 1007.9 0.0
20/09:30am 27.8 26.6 17.0 51 6.9 SSE 19 26 10 14 1013.4 1008.0 0.0
20/09:00am 26.9 26.6 17.4 56 6.1 S 15 22 8 12 1013.5 1008.1 1.4
20/08:30am 25.5 25.2 18.2 64 4.7 S 17 22 9 12 1013.8 1008.4 1.4
20/08:00am 24.8 25.8 18.7 69 4.0 SSW 11 17 6 9 1014.2 1008.8 1.4
20/07:30am 24.2 25.0 19.1 73 3.3 SSW 13 20 7 11 1014.2 1008.8 1.4
20/07:00am 24.0 24.4 19.1 74 3.2 S 15 22 8 12 1014.2 1008.8 1.4
20/06:30am 23.6 23.7 19.1 76 2.9 S 17 24 9 13 1013.3 1007.9 1.4
20/06:00am 23.3 23.4 19.2 78 2.7 SSW 17 20 9 11 1012.8 1007.4 1.4
20/05:30am 23.5 24.2 18.8 75 3.1 SSW 13 20 7 11 1012.9 1007.5 1.4
20/05:00am 23.4 23.5 19.1 77 2.8 SW 17 24 9 13 1012.7 1007.3 1.4
20/04:30am 22.9 23.8 20.1 84 1.9 SW 15 20 8 11 1012.6 1007.2 1.2
20/04:00am 23.2 23.3 20.0 82 2.1 WSW 19 28 10 15 1012.6 1007.2 0.8
20/03:30am 23.4 22.7 19.5 79 2.6 WSW 22 30 12 16 1012.4 1006.9 0.4
20/03:00am 25.1 24.7 18.1 65 4.5 WSW 17 24 9 13 1013.5 1008.1 0.0
20/02:30am 26.7 25.4 17.2 56 6.1 S 20 33 11 18 1012.5 1007.0 0.0
20/02:00am 28.1 27.4 15.4 46 8.0 E 13 19 7 10 1012.1 1006.7 0.0
20/01:30am 26.9 25.0 15.3 49 7.2 NW 19 30 10 16 1011.1 1005.6 0.0
20/01:08am 26.1 23.3 17.2 58 5.7 NNW 28 46 15 25 1011.4 1006.0 0.0
20/01:06am 26.3 23.5 17.4 58 5.7 N 28 46 15 25 1011.5 - 0.0
20/01:00am 29.0 28.6 16.2 46 8.2 NNE 13 39 7 21 1011.6 1006.2 0.0
20/12:30am 27.7 29.1 16.3 49 7.2 ENE 4 6 2 3 1011.4 1006.0 0.0
20/12:00am 27.8 28.6 16.4 50 7.3 ENE 7 11 4 6 1011.2 1005.8 0.0
 
Date/Time
WST
Temp
°C
App
Temp
°C
Dew
Point
°C
Rel
Hum
%
Delta-T
°C
Wind Press
QNH
hPa
Press
MSL
hPa
Rain since
9am
mm
Dir  Spd
km/h
Gust
km/h
Spd
kts
Gust
kts
19/11:30pm 28.0 30.4 16.9 51 7.1 CALM 0 0 0 0 1011.1 1005.6 0.0
19/11:00pm 28.2 30.1 15.8 47 7.8 CALM 0 0 0 0 1011.2 1005.8 0.0
19/10:30pm 29.5 30.0 14.1 39 9.5 ENE 4 11 2 6 1011.3 1005.9 0.0
19/10:00pm 29.8 31.1 15.1 40 9.2 ENE 2 7 1 4 1011.3 1005.9 0.0
19/09:30pm 30.8 30.6 13.1 34 10.8 ENE 6 9 3 5 1011.3 1005.9 0.0
19/09:00pm 31.2 30.4 13.0 33 11.1 ENE 9 11 5 6 1011.0 1005.5 0.0
19/08:30pm 31.8 30.3 13.1 32 11.5 ENE 13 15 7 8 1010.4 1005.0 0.0
19/08:00pm 31.9 30.8 13.2 32 11.5 ENE 11 11 6 6 1010.2 1004.8 0.0
19/07:30pm 32.1 30.9 12.8 30 11.8 ENE 11 13 6 7 1009.8 1004.4 0.0
19/07:00pm 32.6 31.6 13.3 31 11.9 ENE 11 11 6 6 1009.4 1003.9 0.0
19/06:30pm 33.6 32.3 12.6 28 12.9 ENE 11 15 6 8 1009.1 1003.6 0.0
19/06:00pm 35.0 33.0 12.6 26 13.8 ENE 15 20 8 11 1008.9 1003.4 0.0
19/05:30pm 35.7 33.3 11.4 23 14.8 NE 15 22 8 12 1008.7 1003.3 0.0
19/05:00pm 36.4 34.5 11.9 23 15.1 NNE 13 17 7 9 1008.6 1003.2 0.0
19/04:30pm 36.9 35.1 11.0 21 15.7 ENE 11 15 6 8 1009.1 1003.6 0.0
19/04:00pm 36.6 34.4 10.7 21 15.7 NNE 13 20 7 11 1009.4 1003.9 0.0
19/03:30pm 37.5 35.5 10.0 19 16.5 NE 11 17 6 9 1009.6 1004.1 0.0
19/03:00pm 36.6 34.0 9.2 19 16.2 NNE 13 24 7 13 1009.7 1004.3 0.0
19/02:30pm 36.8 33.1 10.2 20 15.9 NE 20 32 11 17 1009.8 1004.4 0.0
19/02:00pm 35.3 33.7 12.9 26 13.9 ENE 13 20 7 11 1010.2 1004.8 0.0
19/01:30pm 35.2 33.2 12.8 26 13.9 ENE 15 24 8 13 1010.9 1005.4 0.0
19/01:00pm 35.1 32.7 12.7 26 13.8 ENE 17 26 9 14 1011.0 1005.5 0.0
19/12:30pm 35.5 33.6 10.5 22 15.0 E 11 17 6 9 1011.3 1005.9 0.0
19/12:00pm 33.0 30.6 12.6 29 12.5 E 17 26 9 14 1011.8 1006.4 0.0
19/11:30am 30.5 29.6 13.7 35 10.4 E 11 17 6 9 1012.0 1006.6 0.0
19/11:29am 30.7 29.9 13.9 36 10.4 E 11 17 6 9 1012.1 - 0.0

Other formats

Comma delimited format used in spreadsheet applications
http://www.bom.gov.au/fwo/IDW60801/IDW60801.99313.axf

JavaScript Object Notation format (JSON) in row-major order
http://www.bom.gov.au/fwo/IDW60801/IDW60801.99313.json

Data quality

Most of these data are generated automatically and are frequently updated. Quality checks on data are not normally performed. It is possible for incorrect values to appear. Refer to information at About Latest Weather Observations and please check the disclaimer before using these data.